createdAt,value
2019-03-08T00:02:16.074Z,1.10
2019-03-08T00:04:44.113Z,1.00
2019-03-08T00:07:12.259Z,0.90
2019-03-08T00:09:40.307Z,0.90
2019-03-08T00:12:09.117Z,0.90
2019-03-08T00:14:37.988Z,0.93
2019-03-08T00:17:06.066Z,1.00
2019-03-08T00:19:34.102Z,1.00
2019-03-08T00:22:02.149Z,1.00
2019-03-08T00:24:30.177Z,1.30
2019-03-08T00:26:58.205Z,0.88
2019-03-08T00:29:26.311Z,0.90
2019-03-08T00:31:54.364Z,0.80
2019-03-08T00:34:23.163Z,0.98
2019-03-08T00:36:51.199Z,0.90
2019-03-08T00:39:19.301Z,1.00
2019-03-08T00:41:48.223Z,0.95
2019-03-08T00:44:16.271Z,0.80
2019-03-08T00:46:44.309Z,1.30
2019-03-08T00:49:12.420Z,1.00
2019-03-08T00:51:40.465Z,1.00
2019-03-08T00:54:09.268Z,1.10
2019-03-08T00:56:37.315Z,1.08
2019-03-08T00:59:06.146Z,1.23
2019-03-08T01:01:35.016Z,1.17
2019-03-08T01:04:03.071Z,1.20
2019-03-08T01:06:31.142Z,1.00
2019-03-08T01:08:59.215Z,1.10
2019-03-08T01:11:28.023Z,1.00
2019-03-08T01:13:56.051Z,1.20
2019-03-08T01:16:25.970Z,1.10
2019-03-08T01:18:52.125Z,1.10
2019-03-08T01:21:20.168Z,0.85
2019-03-08T01:23:48.198Z,1.05
2019-03-08T01:26:16.320Z,0.95
2019-03-08T01:28:45.131Z,0.98
2019-03-08T01:31:13.201Z,0.90
2019-03-08T01:33:41.231Z,1.10
2019-03-08T01:36:09.278Z,1.15
2019-03-08T01:38:37.318Z,1.10
2019-03-08T01:41:05.383Z,1.00
2019-03-08T01:43:33.422Z,1.27
2019-03-08T01:46:02.248Z,1.15
2019-03-08T01:48:31.021Z,0.90
2019-03-08T01:50:59.099Z,0.82
2019-03-08T01:53:27.171Z,0.90
2019-03-08T01:55:55.960Z,0.93
2019-03-08T01:58:24.027Z,1.00
2019-03-08T02:00:52.085Z,0.80
2019-03-08T02:03:20.139Z,0.90
2019-03-08T02:05:48.237Z,0.90
2019-03-08T02:08:16.282Z,1.10
2019-03-08T02:10:44.311Z,0.80
2019-03-08T02:13:12.366Z,0.80
2019-03-08T02:15:40.428Z,1.00
2019-03-08T02:18:08.491Z,0.93
2019-03-08T02:20:36.560Z,1.08
2019-03-08T02:23:04.595Z,1.30
2019-03-08T02:25:33.411Z,0.93
2019-03-08T02:28:01.494Z,1.10
2019-03-08T02:30:29.532Z,0.90
2019-03-08T02:32:58.336Z,1.10
2019-03-08T02:35:26.386Z,0.82
2019-03-08T02:37:55.204Z,0.90
2019-03-08T02:40:28.798Z,0.80
2019-03-08T02:42:56.836Z,1.00
2019-03-08T02:45:24.939Z,0.90
2019-03-08T02:47:53.024Z,0.88
2019-03-08T02:50:21.900Z,0.95
2019-03-08T02:52:49.926Z,0.95
2019-03-08T02:55:17.977Z,1.08
2019-03-08T02:57:46.008Z,0.85
2019-03-08T03:00:14.078Z,0.85
2019-03-08T03:02:42.150Z,0.90
2019-03-08T03:05:10.186Z,0.95
2019-03-08T03:07:38.986Z,0.80
2019-03-08T03:10:07.064Z,1.00
2019-03-08T03:12:35.970Z,0.80
2019-03-08T03:15:04.968Z,1.10
2019-03-08T03:17:33.001Z,1.00
2019-03-08T03:20:01.724Z,0.90
2019-03-08T03:22:30.515Z,1.00
2019-03-08T03:24:58.591Z,0.77
2019-03-08T03:27:26.747Z,0.88
2019-03-08T03:29:54.836Z,1.08
2019-03-08T03:32:22.870Z,1.00
2019-03-08T03:34:51.675Z,0.98
2019-03-08T03:37:19.719Z,0.90
2019-03-08T03:39:48.516Z,1.27
2019-03-08T03:42:16.599Z,0.90
2019-03-08T03:44:44.682Z,1.02
2019-03-08T03:47:12.723Z,1.05
2019-03-08T03:49:41.542Z,1.00
2019-03-08T03:52:09.598Z,1.08
2019-03-08T03:54:37.636Z,1.00
2019-03-08T03:57:05.683Z,1.10
2019-03-08T03:59:33.696Z,0.93
2019-03-08T04:02:01.866Z,1.10
2019-03-08T04:04:29.919Z,1.00
2019-03-08T04:06:58.027Z,1.00
2019-03-08T04:09:26.078Z,1.30
2019-03-08T04:11:54.889Z,1.00
2019-03-08T04:14:22.923Z,1.10
2019-03-08T04:16:51.008Z,1.10
2019-03-08T04:19:19.802Z,1.15
2019-03-08T04:21:48.694Z,1.10
2019-03-08T04:24:16.748Z,0.88
2019-03-08T04:26:44.856Z,1.15
2019-03-08T04:29:12.927Z,1.05
2019-03-08T04:31:41.705Z,0.90
2019-03-08T04:34:10.030Z,1.05
2019-03-08T04:36:38.074Z,0.85
2019-03-08T04:39:06.127Z,1.30
2019-03-08T04:41:34.178Z,1.10
2019-03-08T04:44:02.971Z,1.30
2019-03-08T04:46:31.016Z,1.52
2019-03-08T04:48:59.815Z,1.23
2019-03-08T04:51:28.624Z,1.05
2019-03-08T04:53:56.699Z,1.30
2019-03-08T04:56:24.743Z,1.00
2019-03-08T04:58:53.540Z,1.10
2019-03-08T05:01:21.616Z,1.27
2019-03-08T05:03:49.699Z,1.25
2019-03-08T05:06:17.764Z,1.20
2019-03-08T05:08:45.896Z,1.10
2019-03-08T05:11:13.915Z,1.20
2019-03-08T05:13:41.967Z,1.10
2019-03-08T05:16:10.016Z,1.00
2019-03-08T05:18:38.836Z,1.20
2019-03-08T05:21:06.887Z,1.15
2019-03-08T05:23:35.683Z,1.17
2019-03-08T05:26:04.578Z,1.10
2019-03-08T05:28:32.600Z,1.30
2019-03-08T05:31:00.720Z,1.40
2019-03-08T05:33:28.804Z,1.30
2019-03-08T05:35:56.977Z,1.20
2019-03-08T05:38:25.843Z,1.20
2019-03-08T05:40:53.870Z,1.10
2019-03-08T05:43:21.910Z,1.10
2019-03-08T05:45:49.959Z,1.00
2019-03-08T05:48:18.739Z,1.00
2019-03-08T05:50:46.775Z,1.02
2019-03-08T05:53:15.096Z,0.90
2019-03-08T05:55:43.482Z,1.08
2019-03-08T05:58:11.531Z,1.00
2019-03-08T06:00:40.319Z,1.10
2019-03-08T06:03:08.354Z,1.00
2019-03-08T06:05:37.904Z,1.05
2019-03-08T06:08:06.693Z,0.90
2019-03-08T06:10:34.718Z,0.90
2019-03-08T06:13:02.832Z,0.88
2019-03-08T06:15:30.910Z,0.90
2019-03-08T06:17:59.702Z,1.17
2019-03-08T06:20:27.769Z,0.88
2019-03-08T06:22:55.878Z,1.05
2019-03-08T06:25:23.912Z,1.00
2019-03-08T06:27:52.707Z,0.82
2019-03-08T06:30:20.746Z,0.70
2019-03-08T06:32:49.655Z,0.80
2019-03-08T06:35:17.696Z,0.80
2019-03-08T06:37:46.499Z,0.82
2019-03-08T06:40:14.563Z,1.00
2019-03-08T06:42:42.585Z,0.70
2019-03-08T06:45:14.167Z,0.70
2019-03-08T06:47:42.278Z,0.80
2019-03-08T06:50:10.312Z,0.80
2019-03-08T06:52:39.127Z,0.70
2019-03-08T06:55:07.167Z,0.80
2019-03-08T06:57:35.276Z,0.60
2019-03-08T07:00:03.349Z,0.70
2019-03-08T07:02:31.399Z,0.70
2019-03-08T07:05:00.306Z,0.80
2019-03-08T07:07:29.083Z,0.60
2019-03-08T07:09:57.110Z,0.70
2019-03-08T07:12:25.236Z,0.60
2019-03-08T07:14:53.272Z,0.77
2019-03-08T07:17:22.083Z,0.70
2019-03-08T07:20:00.024Z,0.80
2019-03-08T07:22:33.736Z,0.70
2019-03-08T07:25:02.596Z,0.75
2019-03-08T07:27:32.591Z,0.70
2019-03-08T07:30:01.076Z,0.60
2019-03-08T07:32:39.019Z,0.90
2019-03-08T07:35:07.051Z,1.12
2019-03-08T07:37:40.942Z,1.30
2019-03-08T07:40:27.767Z,0.88
2019-03-08T07:43:07.628Z,1.58
2019-03-08T07:45:44.201Z,0.90
2019-03-08T07:48:16.938Z,0.90
2019-03-08T07:51:02.584Z,0.88
2019-03-08T07:53:33.348Z,0.65
2019-03-08T07:56:04.106Z,0.80
2019-03-08T07:58:33.586Z,0.90
2019-03-08T08:01:17.279Z,0.82
2019-03-08T08:03:46.918Z,0.90
2019-03-08T08:06:15.552Z,0.70
2019-03-08T08:08:51.531Z,1.00
2019-03-08T08:11:20.964Z,0.80
2019-03-08T08:13:49.800Z,0.80
2019-03-08T08:16:23.746Z,0.60
2019-03-08T08:19:06.791Z,0.70
2019-03-08T08:21:34.795Z,0.80
2019-03-08T08:24:08.460Z,0.70
2019-03-08T08:26:40.056Z,0.87
2019-03-08T08:29:15.676Z,0.90
2019-03-08T08:31:45.103Z,0.80
2019-03-08T08:34:16.054Z,0.90
2019-03-08T08:36:49.775Z,0.77
2019-03-08T08:39:28.587Z,0.90
2019-03-08T08:42:08.348Z,1.30
2019-03-08T08:44:46.974Z,0.60
2019-03-08T08:47:15.635Z,0.70
2019-03-08T08:49:54.343Z,0.90
2019-03-08T08:52:19.191Z,0.70
2019-03-08T08:55:03.836Z,1.10
2019-03-08T08:57:31.866Z,0.57
2019-03-08T09:00:01.723Z,0.80
2019-03-08T09:02:29.799Z,0.68
2019-03-08T09:05:04.647Z,0.60
2019-03-08T09:07:33.451Z,0.57
2019-03-08T09:10:03.103Z,0.68
2019-03-08T09:12:39.967Z,0.70
2019-03-08T09:15:23.922Z,0.62
2019-03-08T09:17:56.725Z,0.70
2019-03-08T09:20:41.236Z,0.70
2019-03-08T09:23:10.223Z,0.85
2019-03-08T09:25:38.247Z,0.75
2019-03-08T09:28:09.007Z,0.70
2019-03-08T09:30:37.054Z,0.70
2019-03-08T09:33:11.735Z,0.60
2019-03-08T09:35:39.875Z,0.70
2019-03-08T09:38:09.968Z,0.70
2019-03-08T09:40:41.683Z,0.70
2019-03-08T09:43:09.725Z,0.70
2019-03-08T09:45:57.731Z,0.70
2019-03-08T09:48:32.288Z,0.70
2019-03-08T09:51:06.909Z,0.70
2019-03-08T09:53:37.420Z,0.90
2019-03-08T09:56:12.176Z,0.60
2019-03-08T09:58:40.213Z,0.70
2019-03-08T10:01:16.626Z,0.70
2019-03-08T10:03:46.467Z,0.70
2019-03-08T10:06:28.545Z,0.70
2019-03-08T10:08:57.504Z,0.90
2019-03-08T10:11:25.550Z,0.88
2019-03-08T10:13:54.356Z,0.70
2019-03-08T10:16:23.323Z,0.60
2019-03-08T10:19:02.035Z,0.90
2019-03-08T10:21:41.531Z,0.70
2019-03-08T10:24:12.416Z,0.75
2019-03-08T10:26:45.829Z,0.80
2019-03-08T10:29:29.799Z,0.80
2019-03-08T10:32:14.670Z,0.80
2019-03-08T10:34:44.520Z,0.77
2019-03-08T10:37:12.564Z,0.90
2019-03-08T10:42:37.463Z,1.40
2019-03-08T10:45:06.295Z,0.80
2019-03-08T10:47:35.155Z,0.88
2019-03-08T10:50:07.099Z,0.80
2019-03-08T10:52:37.730Z,1.10
2019-03-08T10:55:07.602Z,0.90
2019-03-08T10:57:36.414Z,0.75
2019-03-08T11:00:11.702Z,0.90
2019-03-08T11:02:40.684Z,0.85
2019-03-08T11:05:11.323Z,0.60
2019-03-08T11:07:54.249Z,0.80
2019-03-08T11:10:27.943Z,0.80
2019-03-08T11:12:56.589Z,1.00
2019-03-08T11:15:40.310Z,0.80
2019-03-08T11:18:15.022Z,0.80
2019-03-08T11:20:46.455Z,0.80
2019-03-08T11:26:14.967Z,0.60
2019-03-08T11:28:45.445Z,0.90
2019-03-08T11:31:13.923Z,0.80
2019-03-08T11:33:54.860Z,0.80
2019-03-08T11:36:37.786Z,0.90
2019-03-08T11:39:21.255Z,0.90
2019-03-08T11:45:02.008Z,0.80
2019-03-08T11:47:35.603Z,0.70
2019-03-08T11:50:06.257Z,0.95
2019-03-08T11:52:37.235Z,0.77
2019-03-08T11:55:06.076Z,0.65
2019-03-08T11:57:49.937Z,0.80
2019-03-08T12:00:19.241Z,1.00
2019-03-08T12:02:49.843Z,1.10
2019-03-08T12:05:35.623Z,0.90
2019-03-08T12:08:05.264Z,0.85
2019-03-08T12:10:33.764Z,0.82
2019-03-08T12:13:13.619Z,0.80
2019-03-08T12:15:59.355Z,0.88
2019-03-08T12:18:45.252Z,0.70
2019-03-08T12:21:15.335Z,0.80
2019-03-08T12:23:44.144Z,0.93
2019-03-08T12:26:30.965Z,0.80
2019-03-08T12:28:59.011Z,0.70
2019-03-08T12:31:45.881Z,0.90
2019-03-08T12:34:19.718Z,0.77
2019-03-08T12:36:52.331Z,1.10
2019-03-08T12:39:21.280Z,0.80
2019-03-08T12:42:04.986Z,1.00
2019-03-08T12:44:33.007Z,0.80
2019-03-08T12:47:13.816Z,0.98
2019-03-08T12:49:44.327Z,1.70
2019-03-08T12:52:24.192Z,1.10
2019-03-08T12:55:09.215Z,0.80
2019-03-08T12:57:37.247Z,1.10
2019-03-08T13:00:10.270Z,0.80
2019-03-08T13:05:35.268Z,3.57
2019-03-08T13:08:06.819Z,1.20
2019-03-08T13:10:35.635Z,1.12
2019-03-08T13:13:04.524Z,1.57
2019-03-08T13:15:32.591Z,1.50
2019-03-08T13:18:00.678Z,1.17
2019-03-08T13:20:28.731Z,1.25
2019-03-08T13:22:56.906Z,1.12
2019-03-08T13:25:24.978Z,0.80
2019-03-08T13:27:53.055Z,1.10
2019-03-08T13:30:21.901Z,1.20
2019-03-08T13:32:49.935Z,1.65
2019-03-08T13:35:17.991Z,1.40
2019-03-08T13:37:46.002Z,1.00
2019-03-08T13:40:14.122Z,0.95
2019-03-08T13:42:42.297Z,1.20
2019-03-08T13:45:11.091Z,1.57
2019-03-08T13:47:39.148Z,1.15
2019-03-08T13:50:07.946Z,1.30
2019-03-08T13:52:36.020Z,1.40
2019-03-08T13:55:04.799Z,1.20
2019-03-08T13:57:32.880Z,1.00
2019-03-08T14:00:00.916Z,1.25
2019-03-08T14:02:29.739Z,1.00
2019-03-08T14:04:57.804Z,1.17
2019-03-08T14:07:25.849Z,1.85
2019-03-08T14:09:53.948Z,1.70
2019-03-08T14:12:21.991Z,1.10
2019-03-08T14:14:50.072Z,0.80
2019-03-08T14:17:18.134Z,1.23
2019-03-08T14:19:46.947Z,0.98
2019-03-08T14:22:15.001Z,1.20
2019-03-08T14:24:43.039Z,0.98
2019-03-08T14:27:11.087Z,1.10
2019-03-08T14:29:40.912Z,1.60
2019-03-08T14:32:07.197Z,1.60
2019-03-08T14:34:35.236Z,1.20
2019-03-08T14:37:04.060Z,1.10
2019-03-08T14:39:32.930Z,1.12
2019-03-08T14:42:05.515Z,1.08
2019-03-08T14:44:40.714Z,1.10
2019-03-08T14:47:08.775Z,1.20
2019-03-08T14:49:36.796Z,1.00
2019-03-08T14:52:04.868Z,0.90
2019-03-08T14:54:32.915Z,1.00
2019-03-08T14:57:01.728Z,1.00
2019-03-08T14:59:29.768Z,0.90
2019-03-08T15:01:58.589Z,0.80
2019-03-08T15:04:29.357Z,1.00
2019-03-08T15:06:55.419Z,0.93
2019-03-08T15:09:23.516Z,1.00
2019-03-08T15:11:51.591Z,0.80
2019-03-08T15:14:19.668Z,1.00
2019-03-08T15:16:48.524Z,1.23
2019-03-08T15:19:15.751Z,2.10
2019-03-08T15:21:48.460Z,1.80
2019-03-08T15:24:13.458Z,1.92
2019-03-08T15:26:42.230Z,5.10
2019-03-08T15:29:11.151Z,2.85
2019-03-08T15:31:39.196Z,5.05
2019-03-08T15:34:08.113Z,2.10
2019-03-08T15:36:36.996Z,1.62
2019-03-08T15:39:05.052Z,1.52
2019-03-08T15:41:33.079Z,1.47
2019-03-08T15:44:01.139Z,1.37
2019-03-08T15:46:29.494Z,1.15
2019-03-08T15:48:57.564Z,1.20
2019-03-08T15:51:26.754Z,1.33
2019-03-08T15:53:54.559Z,1.40
2019-03-08T15:56:22.466Z,1.02
2019-03-08T15:58:50.517Z,1.20
2019-03-08T16:01:18.571Z,1.30
2019-03-08T16:03:47.531Z,1.25
2019-03-08T16:06:15.576Z,1.27
2019-03-08T16:08:43.779Z,1.50
2019-03-08T16:11:11.823Z,1.30
2019-03-08T16:13:39.882Z,1.17
2019-03-08T16:16:07.899Z,1.30
2019-03-08T16:18:36.035Z,1.23
2019-03-08T16:21:04.119Z,1.30
2019-03-08T16:23:32.913Z,1.50
2019-03-08T16:26:00.976Z,1.70
2019-03-08T16:28:29.852Z,1.20
2019-03-08T16:31:03.811Z,1.20
2019-03-08T16:33:37.647Z,1.20
2019-03-08T16:36:08.256Z,1.10
2019-03-08T16:38:43.068Z,1.20
2019-03-08T16:41:11.892Z,1.30
2019-03-08T16:43:45.746Z,1.45
2019-03-08T16:46:27.217Z,1.30
2019-03-08T16:49:14.888Z,1.20
2019-03-08T16:51:43.616Z,1.10
2019-03-08T16:54:26.549Z,1.20
2019-03-08T16:56:58.210Z,1.20
2019-03-08T16:59:31.050Z,1.20
2019-03-08T17:02:15.603Z,1.17
2019-03-08T17:04:43.674Z,1.50
2019-03-08T17:07:24.428Z,1.30
2019-03-08T17:12:48.276Z,1.80
2019-03-08T17:15:22.795Z,1.27
2019-03-08T17:17:55.718Z,1.58
2019-03-08T17:20:29.556Z,1.30
2019-03-08T17:22:59.795Z,1.80
2019-03-08T17:25:38.694Z,1.87
2019-03-08T17:28:07.488Z,1.50
2019-03-08T17:30:38.901Z,1.40
2019-03-08T17:33:08.747Z,1.20
2019-03-08T17:35:56.319Z,1.30
2019-03-08T17:38:28.223Z,1.50
2019-03-08T17:44:05.137Z,1.73
2019-03-08T17:46:39.640Z,1.53
2019-03-08T17:49:13.032Z,1.20
2019-03-08T17:51:51.884Z,1.60
2019-03-08T17:54:22.295Z,1.60
2019-03-08T17:57:00.389Z,1.65
2019-03-08T17:59:30.249Z,1.90
2019-03-08T18:02:00.754Z,1.90
2019-03-08T18:04:34.520Z,2.00
2019-03-08T18:07:06.531Z,1.87
2019-03-08T18:09:38.511Z,1.90
2019-03-08T18:12:06.556Z,1.80
2019-03-08T18:14:41.169Z,2.03
2019-03-08T18:17:09.257Z,1.75
2019-03-08T18:19:38.111Z,1.92
2019-03-08T18:22:06.596Z,1.87
2019-03-08T18:24:49.627Z,1.90
2019-03-08T18:27:23.307Z,2.10
2019-03-08T18:29:53.294Z,2.20
2019-03-08T18:32:30.226Z,2.42
2019-03-08T18:34:58.800Z,1.80
2019-03-08T18:37:32.436Z,1.98
2019-03-08T18:40:05.051Z,2.30
2019-03-08T18:42:37.599Z,1.90
2019-03-08T18:45:07.444Z,1.73
2019-03-08T18:47:37.995Z,1.70
2019-03-08T18:50:08.412Z,2.00
2019-03-08T18:52:42.037Z,2.08
2019-03-08T18:55:18.963Z,1.80
2019-03-08T18:57:49.635Z,1.70
2019-03-08T19:00:24.244Z,1.90
2019-03-08T19:03:08.024Z,2.08
2019-03-08T19:05:52.620Z,2.00
2019-03-08T19:08:23.224Z,1.95
2019-03-08T19:10:51.237Z,2.17
2019-03-08T19:13:34.159Z,2.00
2019-03-08T19:16:04.762Z,1.95
2019-03-08T19:18:43.648Z,1.92
2019-03-08T19:21:12.531Z,1.67
2019-03-08T19:23:44.166Z,2.00
2019-03-08T19:26:12.740Z,1.62
2019-03-08T19:28:42.602Z,2.00
2019-03-08T19:31:11.205Z,1.80
2019-03-08T19:33:41.800Z,1.90
2019-03-08T19:36:20.656Z,2.12
2019-03-08T19:38:54.454Z,2.30
2019-03-08T19:41:24.939Z,2.12
2019-03-08T19:43:55.746Z,1.80
2019-03-08T19:46:25.711Z,2.20
2019-03-08T19:51:56.526Z,2.40
2019-03-08T19:54:35.251Z,2.15
2019-03-08T19:57:03.329Z,2.33
2019-03-08T19:59:47.254Z,3.05
2019-03-08T20:02:20.899Z,3.12
2019-03-08T20:04:49.508Z,2.70
2019-03-08T20:07:23.156Z,2.57
2019-03-08T20:09:53.915Z,2.25
2019-03-08T20:12:23.663Z,2.17
2019-03-08T20:14:53.635Z,2.47
2019-03-08T20:17:28.328Z,2.40
2019-03-08T20:19:59.220Z,2.50
2019-03-08T20:22:38.074Z,2.40
2019-03-08T20:25:06.116Z,2.20
2019-03-08T20:27:46.992Z,2.33
2019-03-08T20:30:15.067Z,2.47
2019-03-08T20:32:43.130Z,2.30
2019-03-08T20:35:14.675Z,2.35
2019-03-08T20:37:58.571Z,2.60
2019-03-08T20:40:44.331Z,2.50
2019-03-08T20:43:15.823Z,2.30
2019-03-08T20:45:46.096Z,1.90
2019-03-08T20:48:14.641Z,2.12
2019-03-08T20:50:42.707Z,2.10
2019-03-08T20:53:10.772Z,1.80
2019-03-08T20:55:38.865Z,2.15
2019-03-08T20:58:07.664Z,2.20
2019-03-08T21:00:35.780Z,1.98
2019-03-08T21:03:03.811Z,2.00
2019-03-08T21:05:31.852Z,2.55
2019-03-08T21:08:00.644Z,2.10
2019-03-08T21:10:28.715Z,2.50
2019-03-08T21:12:56.810Z,2.30
2019-03-08T21:15:25.794Z,2.10
2019-03-08T21:17:52.924Z,2.10
2019-03-08T21:20:20.993Z,2.15
2019-03-08T21:22:49.031Z,2.47
2019-03-08T21:25:17.179Z,2.35
2019-03-08T21:27:45.466Z,2.50
2019-03-08T21:30:17.217Z,2.30
2019-03-08T21:32:45.506Z,2.65
2019-03-08T21:35:13.591Z,2.55
2019-03-08T21:37:41.671Z,2.97
2019-03-08T21:40:10.622Z,2.47
2019-03-08T21:42:38.675Z,2.40
2019-03-08T21:45:07.632Z,2.15
2019-03-08T21:47:35.720Z,2.50
2019-03-08T21:50:03.752Z,2.60
2019-03-08T21:52:32.604Z,2.58
2019-03-08T21:55:00.758Z,2.55
2019-03-08T21:57:28.847Z,2.53
2019-03-08T21:59:56.869Z,2.30
2019-03-08T22:02:25.019Z,2.15
2019-03-08T22:04:53.045Z,2.37
2019-03-08T22:07:21.084Z,2.20
2019-03-08T22:09:53.780Z,2.47
2019-03-08T22:12:21.900Z,2.12
2019-03-08T22:14:50.488Z,2.20
2019-03-08T22:17:18.538Z,2.50
2019-03-08T22:19:46.556Z,2.50
2019-03-08T22:22:14.591Z,2.17
2019-03-08T22:24:42.626Z,2.30
2019-03-08T22:27:10.671Z,2.28
2019-03-08T22:29:39.563Z,2.23
2019-03-08T22:32:07.592Z,1.98
2019-03-08T22:34:35.716Z,2.05
2019-03-08T22:37:03.779Z,2.00
2019-03-08T22:39:31.857Z,2.10
2019-03-08T22:41:59.916Z,1.95
2019-03-08T22:44:28.032Z,2.12
2019-03-08T22:46:56.059Z,2.00
2019-03-08T22:49:24.104Z,1.98
2019-03-08T22:51:52.175Z,2.00
2019-03-08T22:54:20.983Z,1.95
2019-03-08T22:56:49.015Z,1.80
2019-03-08T22:59:17.060Z,1.80
2019-03-08T23:01:45.290Z,1.70
2019-03-08T23:04:14.087Z,1.55
2019-03-08T23:06:42.156Z,1.58
2019-03-08T23:09:10.200Z,1.55
2019-03-08T23:11:39.086Z,1.50
2019-03-08T23:14:07.880Z,1.73
2019-03-08T23:16:36.693Z,1.75
2019-03-08T23:19:05.589Z,1.67
2019-03-08T23:21:33.627Z,1.92
2019-03-08T23:24:02.439Z,1.70
2019-03-08T23:26:30.487Z,1.45
2019-03-08T23:28:59.301Z,1.40
2019-03-08T23:31:28.302Z,1.52
2019-03-08T23:33:57.059Z,1.70
2019-03-08T23:36:25.911Z,1.30
2019-03-08T23:38:54.048Z,1.60
2019-03-08T23:41:22.829Z,1.40
2019-03-08T23:43:50.875Z,1.50
2019-03-08T23:46:19.684Z,1.80
2019-03-08T23:48:47.727Z,1.42
2019-03-08T23:51:16.634Z,1.62
2019-03-08T23:53:44.714Z,1.42
2019-03-08T23:56:12.791Z,1.55
2019-03-08T23:58:40.855Z,1.60
